Time,TemperatureF,DewpointF,PressureIn,WindDirection,WindDirectionDegrees,WindSpeedMPH,WindSpeedGustMPH,Humidity,HourlyPrecipIn,Conditions,Clouds,dailyrainin,SoftwareType,DateUTC
2013-07-30 00:00:00,53.4,45.3,29.95,WNW,292,5.0,12.0,74,0.00,,---,0.00,VWS V14.01,2013-07-30 06:00:00,
2013-07-30 00:30:00,52.3,44.6,29.96,WNW,292,4.0,11.0,75,0.00,,---,0.00,VWS V14.01,2013-07-30 06:30:00,
2013-07-30 01:00:00,51.8,44.5,29.96,NW,315,4.0,10.0,76,0.00,,---,0.00,VWS V14.01,2013-07-30 07:00:00,
2013-07-30 01:30:00,51.6,44.3,29.97,WNW,292,5.0,13.0,76,0.00,,---,0.00,VWS V14.01,2013-07-30 07:30:00,
2013-07-30 02:00:00,51.0,44.0,29.98,WNW,292,7.0,15.0,77,0.00,,---,0.00,VWS V14.01,2013-07-30 08:00:00,
2013-07-30 02:30:00,50.0,43.8,29.98,WNW,292,5.0,10.0,79,0.00,,---,0.00,VWS V14.01,2013-07-30 08:30:00,
2013-07-30 03:00:00,48.5,43.0,29.98,WNW,292,5.0,12.0,81,0.00,,---,0.00,VWS V14.01,2013-07-30 09:00:00,
2013-07-30 03:30:00,48.5,43.0,29.99,WNW,292,5.0,11.0,81,0.00,,---,0.00,VWS V14.01,2013-07-30 09:30:00,
2013-07-30 04:00:00,48.9,43.0,29.99,WNW,292,6.0,12.0,80,0.00,,---,0.00,VWS V14.01,2013-07-30 10:00:00,
2013-07-30 04:30:00,48.8,42.9,30.00,WNW,292,6.0,17.0,80,0.00,,---,0.00,VWS V14.01,2013-07-30 10:30:00,
2013-07-30 05:00:00,46.8,42.2,30.01,NW,315,5.0,9.0,84,0.00,,---,0.00,VWS V14.01,2013-07-30 11:00:00,
2013-07-30 05:30:00,45.8,41.9,30.02,NW,315,4.0,13.0,86,0.00,,---,0.00,VWS V14.01,2013-07-30 11:30:00,
2013-07-30 06:00:00,46.8,41.9,30.03,WNW,292,4.0,10.0,83,0.00,,---,0.00,VWS V14.01,2013-07-30 12:00:00,
2013-07-30 06:30:00,46.7,41.8,30.04,WNW,292,5.0,10.0,83,0.00,,---,0.00,VWS V14.01,2013-07-30 12:30:00,
2013-07-30 07:26:00,46.9,42.0,30.05,WNW,287,8.0,8.0,83,0.00,,---,0.00,VWS V14.01,2013-07-30 13:26:00,
2013-07-30 07:30:00,47.2,42.0,30.05,WNW,287,5.0,11.0,82,0.07,,---,0.00,VWS V14.01,2013-07-30 13:30:00,
2013-07-30 07:31:00,47.3,42.1,30.05,NW,318,5.0,6.0,82,0.07,,---,0.00,VWS V14.01,2013-07-30 13:31:00,
2013-07-30 07:36:00,47.6,42.4,30.05,WNW,290,9.0,11.0,82,0.07,,---,0.00,VWS V14.01,2013-07-30 13:36:00,
2013-07-30 07:41:00,48.5,43.0,30.05,WNW,295,8.0,14.0,81,0.07,,---,0.00,VWS V14.01,2013-07-30 13:41:00,
2013-07-30 07:46:00,49.4,43.2,30.05,NW,311,6.0,14.0,79,0.07,,---,0.00,VWS V14.01,2013-07-30 13:46:00,
2013-07-30 07:51:00,50.0,43.4,30.05,West,281,9.0,14.0,78,0.07,,---,0.00,VWS V14.01,2013-07-30 13:51:00,
2013-07-30 07:56:00,50.4,43.5,30.05,WSW,253,10.0,14.0,77,0.07,,---,0.00,VWS V14.01,2013-07-30 13:56:00,
2013-07-30 08:00:00,50.7,43.8,30.05,West,275,6.0,14.0,77,0.07,,---,0.00,VWS V14.01,2013-07-30 14:00:00,
2013-07-30 08:02:00,50.8,43.9,30.05,NW,315,7.0,9.0,77,0.00,,---,0.00,VWS V14.01,2013-07-30 14:02:00,
2013-07-30 08:07:00,51.1,43.8,30.05,West,274,8.0,12.0,76,0.00,,---,0.00,VWS V14.01,2013-07-30 14:07:00,
2013-07-30 08:12:00,51.4,43.8,30.06,West,280,4.0,13.0,75,0.00,,---,0.00,VWS V14.01,2013-07-30 14:12:00,
2013-07-30 08:17:00,51.7,44.0,30.05,West,273,7.0,15.0,75,0.00,,---,0.00,VWS V14.01,2013-07-30 14:17:00,
2013-07-30 08:22:00,51.8,43.8,30.05,West,276,4.0,15.0,74,0.00,,---,0.00,VWS V14.01,2013-07-30 14:22:00,
2013-07-30 08:27:00,52.1,44.1,30.05,WNW,290,14.0,15.0,74,0.00,,---,0.00,VWS V14.01,2013-07-30 14:27:00,
2013-07-30 08:30:00,52.4,44.0,30.06,NW,325,7.0,15.0,73,0.00,,---,0.00,VWS V14.01,2013-07-30 14:30:00,
2013-07-30 08:32:00,52.6,44.6,30.05,WNW,300,9.0,9.0,74,0.00,,---,0.00,VWS V14.01,2013-07-30 14:32:00,
2013-07-30 08:37:00,53.3,44.5,30.05,WNW,302,6.0,10.0,72,0.00,,---,0.00,VWS V14.01,2013-07-30 14:37:00,
2013-07-30 08:42:00,53.8,45.0,30.05,WNW,293,7.0,12.0,72,0.00,,---,0.00,VWS V14.01,2013-07-30 14:42:00,
2013-07-30 08:47:00,54.2,44.6,30.05,NW,312,3.0,12.0,70,0.00,,---,0.00,VWS V14.01,2013-07-30 14:47:00,
2013-07-30 08:52:00,54.7,45.1,30.05,West,262,5.0,12.0,70,0.00,,---,0.00,VWS V14.01,2013-07-30 14:52:00,
2013-07-30 08:57:00,55.2,45.2,30.05,WNW,283,8.0,12.0,69,0.00,,---,0.00,VWS V14.01,2013-07-30 14:57:00,
2013-07-30 09:00:00,55.3,45.3,30.05,WNW,302,7.0,12.0,69,0.00,,---,0.00,VWS V14.01,2013-07-30 15:00:00,
2013-07-30 09:02:00,55.3,45.3,30.05,WNW,283,12.0,12.0,69,0.00,,---,0.00,VWS V14.01,2013-07-30 15:02:00,
2013-07-30 09:07:00,55.6,45.6,30.04,WNW,298,8.0,14.0,69,0.00,,---,0.00,VWS V14.01,2013-07-30 15:07:00,
2013-07-30 09:12:00,55.8,45.4,30.04,WNW,300,7.0,14.0,68,0.00,,---,0.00,VWS V14.01,2013-07-30 15:12:00,
2013-07-30 09:17:00,56.3,45.5,30.04,WNW,284,7.0,14.0,67,0.00,,---,0.00,VWS V14.01,2013-07-30 15:17:00,
2013-07-30 09:22:00,56.7,45.9,30.04,WNW,302,4.0,14.0,67,0.00,,---,0.00,VWS V14.01,2013-07-30 15:22:00,
2013-07-30 09:27:00,57.1,45.9,30.03,NW,313,5.0,14.0,66,0.00,,---,0.00,VWS V14.01,2013-07-30 15:27:00,
2013-07-30 09:30:00,57.5,45.8,30.03,West,274,6.0,14.0,65,0.00,,---,0.00,VWS V14.01,2013-07-30 15:30:00,
2013-07-30 09:32:00,57.6,45.9,30.03,WNW,294,10.0,10.0,65,0.00,,---,0.00,VWS V14.01,2013-07-30 15:32:00,
2013-07-30 09:37:00,58.0,45.5,30.03,WNW,291,7.0,11.0,63,0.00,,---,0.00,VWS V14.01,2013-07-30 15:37:00,
2013-07-30 09:42:00,58.7,46.2,30.03,NW,325,4.0,11.0,63,0.00,,---,0.00,VWS V14.01,2013-07-30 15:42:00,
2013-07-30 09:47:00,59.5,46.5,30.03,West,269,5.0,11.0,62,0.00,,---,0.00,VWS V14.01,2013-07-30 15:47:00,
2013-07-30 09:52:00,59.6,46.2,30.03,West,259,10.0,13.0,61,0.00,,---,0.00,VWS V14.01,2013-07-30 15:52:00,
2013-07-30 09:57:00,59.9,47.3,30.03,WNW,302,5.0,13.0,63,0.00,,---,0.00,VWS V14.01,2013-07-30 15:57:00,
2013-07-30 10:00:00,60.4,46.5,30.03,West,267,5.0,13.0,60,0.00,,---,0.00,VWS V14.01,2013-07-30 16:00:00,
2013-07-30 10:02:00,60.6,47.1,30.03,NW,309,7.0,7.0,61,0.00,,---,0.00,VWS V14.01,2013-07-30 16:02:00,
2013-07-30 10:07:00,61.1,46.7,30.03,West,269,7.0,10.0,59,0.00,,---,0.00,VWS V14.01,2013-07-30 16:07:00,
2013-07-30 10:30:00,63.6,47.2,30.02,WNW,292,5.0,12.0,55,0.00,,---,0.00,VWS V14.01,2013-07-30 16:30:00,
2013-07-30 11:00:00,68.5,46.3,30.01,WNW,292,3.0,8.0,45,0.00,,---,0.00,VWS V14.01,2013-07-30 17:00:00,
2013-07-30 11:30:00,71.5,43.2,30.01,WNW,292,4.0,9.0,36,0.00,,---,0.00,VWS V14.01,2013-07-30 17:30:00,
2013-07-30 12:00:00,72.2,39.1,30.00,West,270,4.0,11.0,30,0.00,,---,0.00,VWS V14.01,2013-07-30 18:00:00,
2013-07-30 12:30:00,71.5,39.3,30.00,WNW,292,3.0,11.0,31,0.00,,---,0.00,VWS V14.01,2013-07-30 18:30:00,
2013-07-30 13:00:00,73.3,39.2,29.99,WNW,292,3.0,7.0,29,0.00,,---,0.00,VWS V14.01,2013-07-30 19:00:00,
2013-07-30 13:30:00,73.2,36.3,29.99,WNW,292,3.0,9.0,26,0.00,,---,0.00,VWS V14.01,2013-07-30 19:30:00,
2013-07-30 14:00:00,74.1,39.0,29.98,WNW,292,4.0,14.0,28,0.00,,---,0.00,VWS V14.01,2013-07-30 20:00:00,
2013-07-30 14:30:00,75.5,35.2,29.97,WNW,292,4.0,10.0,23,0.00,,---,0.00,VWS V14.01,2013-07-30 20:30:00,
2013-07-30 15:00:00,74.3,35.2,29.98,WNW,292,5.0,15.0,24,0.00,,---,0.00,VWS V14.01,2013-07-30 21:00:00,
2013-07-30 15:30:00,74.2,36.2,29.97,WNW,292,3.0,9.0,25,0.00,,---,0.00,VWS V14.01,2013-07-30 21:30:00,
2013-07-30 16:00:00,74.9,35.7,29.97,WNW,292,3.0,9.0,24,0.00,,---,0.00,VWS V14.01,2013-07-30 22:00:00,
2013-07-30 16:30:00,74.6,39.4,29.96,WNW,292,1.0,5.0,28,0.00,,---,0.00,VWS V14.01,2013-07-30 22:30:00,
2013-07-30 17:00:00,75.3,32.7,29.95,West,270,2.0,9.0,21,0.00,,---,0.00,VWS V14.01,2013-07-30 23:00:00,
2013-07-30 18:00:00,75.4,36.1,29.94,West,270,3.0,8.0,24,0.00,,---,0.00,VWS V14.01,2013-07-31 00:00:00,
2013-07-30 18:30:00,72.6,46.2,29.94,West,270,0.0,3.0,39,0.00,,---,0.00,VWS V14.01,2013-07-31 00:30:00,
2013-07-30 19:00:00,69.7,48.0,29.93,WNW,292,0.0,1.0,46,0.00,,---,0.00,VWS V14.01,2013-07-31 01:00:00,
2013-07-30 19:30:00,66.4,46.7,29.93,WNW,292,0.0,0.0,49,0.00,,---,0.00,VWS V14.01,2013-07-31 01:30:00,
2013-07-30 20:00:00,61.4,48.7,29.94,West,270,0.0,1.0,63,0.00,,---,0.00,VWS V14.01,2013-07-31 02:00:00,
2013-07-30 20:30:00,58.4,47.9,29.95,WNW,292,0.0,1.0,68,0.00,,---,0.00,VWS V14.01,2013-07-31 02:30:00,
2013-07-30 21:00:00,56.9,46.8,29.96,WNW,292,1.0,3.0,69,0.00,,---,0.00,VWS V14.01,2013-07-31 03:00:00,
2013-07-30 21:30:00,55.8,46.2,29.97,WNW,292,0.0,3.0,70,0.00,,---,0.00,VWS V14.01,2013-07-31 03:30:00,
2013-07-30 22:00:00,56.9,44.0,29.99,NW,315,0.0,2.0,62,0.00,,---,0.00,VWS V14.01,2013-07-31 04:00:00,
2013-07-30 22:30:00,56.4,42.7,30.00,NNW,338,0.0,2.0,60,0.00,,---,0.00,VWS V14.01,2013-07-31 04:30:00,
2013-07-30 23:00:00,56.1,44.5,30.01,WNW,292,0.0,3.0,65,0.00,,---,0.00,VWS V14.01,2013-07-31 05:00:00,
2013-07-30 23:30:00,55.2,44.0,30.01,ESE,112,1.0,5.0,66,0.00,,---,0.00,VWS V14.01,2013-07-31 05:30:00,